sensor_id;sensor_type;location;lat;lon;timestamp;pressure;altitude;pressure_sealevel;temperature;humidity
13732;BME280;6937;56.096;12.664;2022-07-22T00:00:58;105126.22;;;19.19;100.00
13732;BME280;6937;56.096;12.664;2022-07-22T00:03:23;105161.50;;;19.19;100.00
13732;BME280;6937;56.096;12.664;2022-07-22T00:05:49;105197.88;;;19.14;100.00
13732;BME280;6937;56.096;12.664;2022-07-22T00:08:14;105252.09;;;19.15;100.00
13732;BME280;6937;56.096;12.664;2022-07-22T00:10:41;105291.94;;;19.13;100.00
13732;BME280;6937;56.096;12.664;2022-07-22T00:13:07;105334.28;;;19.17;100.00
13732;BME280;6937;56.096;12.664;2022-07-22T00:15:32;105395.03;;;19.13;100.00
13732;BME280;6937;56.096;12.664;2022-07-22T00:17:58;105417.66;;;19.12;100.00
13732;BME280;6937;56.096;12.664;2022-07-22T00:20:23;105417.84;;;19.08;100.00
13732;BME280;6937;56.096;12.664;2022-07-22T00:22:49;105453.94;;;19.10;100.00
13732;BME280;6937;56.096;12.664;2022-07-22T00:25:14;105501.06;;;19.07;100.00
13732;BME280;6937;56.096;12.664;2022-07-22T00:27:39;105545.38;;;19.06;100.00
13732;BME280;6937;56.096;12.664;2022-07-22T00:30:05;105569.91;;;19.03;100.00
13732;BME280;6937;56.096;12.664;2022-07-22T00:32:31;105501.31;;;19.00;100.00
13732;BME280;6937;56.096;12.664;2022-07-22T00:34:56;105434.44;;;18.99;100.00
13732;BME280;6937;56.096;12.664;2022-07-22T00:37:22;105461.53;;;18.99;100.00
13732;BME280;6937;56.096;12.664;2022-07-22T00:39:47;105512.19;;;18.98;100.00
13732;BME280;6937;56.096;12.664;2022-07-22T00:42:13;105559.22;;;18.97;100.00
13732;BME280;6937;56.096;12.664;2022-07-22T00:44:39;105644.94;;;19.04;100.00
13732;BME280;6937;56.096;12.664;2022-07-22T00:47:05;105637.28;;;18.89;100.00
13732;BME280;6937;56.096;12.664;2022-07-22T00:49:30;105653.22;;;19.00;100.00
13732;BME280;6937;56.096;12.664;2022-07-22T00:51:56;105653.16;;;19.01;100.00
13732;BME280;6937;56.096;12.664;2022-07-22T00:54:21;105652.19;;;19.04;100.00
13732;BME280;6937;56.096;12.664;2022-07-22T00:56:47;105646.75;;;19.04;100.00
13732;BME280;6937;56.096;12.664;2022-07-22T00:59:13;105618.78;;;19.02;100.00
13732;BME280;6937;56.096;12.664;2022-07-22T01:01:39;105597.94;;;19.04;100.00
13732;BME280;6937;56.096;12.664;2022-07-22T01:04:05;105583.41;;;19.05;100.00
13732;BME280;6937;56.096;12.664;2022-07-22T01:06:32;105592.50;;;19.04;100.00
13732;BME280;6937;56.096;12.664;2022-07-22T01:08:58;105603.28;;;19.05;100.00
13732;BME280;6937;56.096;12.664;2022-07-22T01:11:24;105578.09;;;19.02;100.00
13732;BME280;6937;56.096;12.664;2022-07-22T01:13:50;105595.22;;;19.04;100.00
13732;BME280;6937;56.096;12.664;2022-07-22T01:16:17;105641.13;;;19.10;100.00
13732;BME280;6937;56.096;12.664;2022-07-22T01:18:43;105631.13;;;19.12;100.00
13732;BME280;6937;56.096;12.664;2022-07-22T01:21:10;105798.50;;;19.10;100.00
13732;BME280;6937;56.096;12.664;2022-07-22T01:23:36;105776.09;;;19.02;100.00
13732;BME280;6937;56.096;12.664;2022-07-22T01:26:03;105787.53;;;19.13;100.00
13732;BME280;6937;56.096;12.664;2022-07-22T01:28:29;105748.75;;;19.09;100.00
13732;BME280;6937;56.096;12.664;2022-07-22T01:30:54;105657.84;;;18.96;100.00
13732;BME280;6937;56.096;12.664;2022-07-22T01:33:21;105634.13;;;19.03;100.00
13732;BME280;6937;56.096;12.664;2022-07-22T01:35:47;105598.03;;;19.01;100.00
13732;BME280;6937;56.096;12.664;2022-07-22T01:38:14;105426.41;;;18.96;100.00
13732;BME280;6937;56.096;12.664;2022-07-22T01:40:41;105172.47;;;18.93;100.00
13732;BME280;6937;56.096;12.664;2022-07-22T01:43:07;105007.09;;;18.92;100.00
13732;BME280;6937;56.096;12.664;2022-07-22T01:45:32;104891.56;;;18.88;100.00
13732;BME280;6937;56.096;12.664;2022-07-22T01:47:58;104703.28;;;18.74;100.00
13732;BME280;6937;56.096;12.664;2022-07-22T01:50:24;104647.19;;;18.75;100.00
13732;BME280;6937;56.096;12.664;2022-07-22T01:52:49;104592.13;;;18.74;100.00
13732;BME280;6937;56.096;12.664;2022-07-22T01:55:15;104496.50;;;18.71;100.00
13732;BME280;6937;56.096;12.664;2022-07-22T01:57:40;104444.94;;;18.72;100.00
13732;BME280;6937;56.096;12.664;2022-07-22T02:00:07;104366.78;;;18.63;100.00
13732;BME280;6937;56.096;12.664;2022-07-22T02:02:33;104326.88;;;18.67;100.00
13732;BME280;6937;56.096;12.664;2022-07-22T02:04:59;104266.38;;;18.66;100.00
13732;BME280;6937;56.096;12.664;2022-07-22T02:07:24;104214.00;;;18.66;100.00
13732;BME280;6937;56.096;12.664;2022-07-22T02:09:51;104138.19;;;18.64;100.00
13732;BME280;6937;56.096;12.664;2022-07-22T02:12:17;104065.53;;;18.55;100.00
13732;BME280;6937;56.096;12.664;2022-07-22T02:14:43;103958.66;;;18.44;100.00
13732;BME280;6937;56.096;12.664;2022-07-22T02:17:08;103902.78;;;18.58;100.00
13732;BME280;6937;56.096;12.664;2022-07-22T02:19:33;103823.53;;;18.55;100.00
13732;BME280;6937;56.096;12.664;2022-07-22T02:21:59;103760.84;;;18.61;100.00
13732;BME280;6937;56.096;12.664;2022-07-22T02:24:24;103670.06;;;18.54;100.00
13732;BME280;6937;56.096;12.664;2022-07-22T02:26:50;103610.19;;;18.58;100.00
13732;BME280;6937;56.096;12.664;2022-07-22T02:29:15;103545.16;;;18.58;100.00
13732;BME280;6937;56.096;12.664;2022-07-22T02:31:41;103490.78;;;18.61;100.00
13732;BME280;6937;56.096;12.664;2022-07-22T02:34:06;103439.31;;;18.61;100.00
13732;BME280;6937;56.096;12.664;2022-07-22T02:36:31;103390.53;;;18.61;100.00
13732;BME280;6937;56.096;12.664;2022-07-22T02:38:57;103350.97;;;18.59;100.00
13732;BME280;6937;56.096;12.664;2022-07-22T02:41:23;103320.59;;;18.54;100.00
13732;BME280;6937;56.096;12.664;2022-07-22T02:43:48;103295.47;;;18.52;100.00
13732;BME280;6937;56.096;12.664;2022-07-22T02:46:13;103256.56;;;18.39;100.00
13732;BME280;6937;56.096;12.664;2022-07-22T02:48:39;103269.31;;;18.51;100.00
13732;BME280;6937;56.096;12.664;2022-07-22T02:51:04;103248.53;;;18.51;100.00
13732;BME280;6937;56.096;12.664;2022-07-22T02:53:30;103237.75;;;18.50;100.00
13732;BME280;6937;56.096;12.664;2022-07-22T02:55:55;103221.50;;;18.50;100.00
13732;BME280;6937;56.096;12.664;2022-07-22T02:58:20;103205.91;;;18.41;100.00
13732;BME280;6937;56.096;12.664;2022-07-22T03:00:46;103205.19;;;18.37;100.00
13732;BME280;6937;56.096;12.664;2022-07-22T03:03:11;103192.94;;;18.31;100.00
13732;BME280;6937;56.096;12.664;2022-07-22T03:05:37;103196.16;;;18.24;100.00
13732;BME280;6937;56.096;12.664;2022-07-22T03:08:02;103217.81;;;18.24;100.00
13732;BME280;6937;56.096;12.664;2022-07-22T03:10:28;103225.38;;;18.19;100.00
13732;BME280;6937;56.096;12.664;2022-07-22T03:12:53;103246.47;;;18.14;100.00
13732;BME280;6937;56.096;12.664;2022-07-22T03:15:19;103287.97;;;18.14;100.00
13732;BME280;6937;56.096;12.664;2022-07-22T03:17:44;103338.50;;;18.14;100.00
13732;BME280;6937;56.096;12.664;2022-07-22T03:20:10;103359.38;;;18.12;100.00
13732;BME280;6937;56.096;12.664;2022-07-22T03:22:36;103374.75;;;18.11;100.00
13732;BME280;6937;56.096;12.664;2022-07-22T03:25:02;103375.91;;;18.07;100.00
13732;BME280;6937;56.096;12.664;2022-07-22T03:27:28;103382.19;;;18.08;100.00
13732;BME280;6937;56.096;12.664;2022-07-22T03:29:53;103357.44;;;18.00;100.00
13732;BME280;6937;56.096;12.664;2022-07-22T03:32:19;103358.22;;;18.02;100.00
13732;BME280;6937;56.096;12.664;2022-07-22T03:34:44;103354.06;;;17.96;100.00
13732;BME280;6937;56.096;12.664;2022-07-22T03:37:10;103341.13;;;17.87;100.00
13732;BME280;6937;56.096;12.664;2022-07-22T03:39:35;103298.59;;;17.75;100.00
13732;BME280;6937;56.096;12.664;2022-07-22T03:42:01;103270.19;;;17.68;100.00
13732;BME280;6937;56.096;12.664;2022-07-22T03:44:27;103247.50;;;17.55;100.00
13732;BME280;6937;56.096;12.664;2022-07-22T03:46:52;103198.47;;;17.47;100.00
13732;BME280;6937;56.096;12.664;2022-07-22T03:49:18;103154.03;;;17.36;100.00
13732;BME280;6937;56.096;12.664;2022-07-22T03:51:43;103139.16;;;17.44;100.00
13732;BME280;6937;56.096;12.664;2022-07-22T03:54:08;103076.31;;;17.26;100.00
13732;BME280;6937;56.096;12.664;2022-07-22T03:56:34;103085.41;;;17.39;100.00
13732;BME280;6937;56.096;12.664;2022-07-22T03:58:59;103063.75;;;17.39;100.00
13732;BME280;6937;56.096;12.664;2022-07-22T04:01:25;103040.47;;;17.36;100.00
13732;BME280;6937;56.096;12.664;2022-07-22T04:03:50;102999.94;;;17.36;100.00
13732;BME280;6937;56.096;12.664;2022-07-22T04:06:16;102975.81;;;17.33;100.00
13732;BME280;6937;56.096;12.664;2022-07-22T04:08:41;102952.13;;;17.37;100.00
13732;BME280;6937;56.096;12.664;2022-07-22T04:11:07;102915.25;;;17.36;100.00
13732;BME280;6937;56.096;12.664;2022-07-22T04:13:32;102862.03;;;17.24;100.00
13732;BME280;6937;56.096;12.664;2022-07-22T04:15:57;102868.03;;;17.42;100.00
13732;BME280;6937;56.096;12.664;2022-07-22T04:18:23;102838.63;;;17.50;100.00
13732;BME280;6937;56.096;12.664;2022-07-22T04:20:49;102799.69;;;17.52;100.00
13732;BME280;6937;56.096;12.664;2022-07-22T04:23:14;102751.47;;;17.46;100.00
13732;BME280;6937;56.096;12.664;2022-07-22T04:25:40;102743.69;;;17.54;100.00
13732;BME280;6937;56.096;12.664;2022-07-22T04:28:06;102725.22;;;17.61;100.00
13732;BME280;6937;56.096;12.664;2022-07-22T04:30:32;102686.72;;;17.57;100.00
13732;BME280;6937;56.096;12.664;2022-07-22T04:32:57;102653.56;;;17.54;100.00
13732;BME280;6937;56.096;12.664;2022-07-22T04:35:24;102631.94;;;17.54;100.00
13732;BME280;6937;56.096;12.664;2022-07-22T04:37:49;102618.53;;;17.52;100.00
13732;BME280;6937;56.096;12.664;2022-07-22T04:40:14;102614.72;;;17.55;100.00
13732;BME280;6937;56.096;12.664;2022-07-22T04:42:40;102624.06;;;17.63;100.00
13732;BME280;6937;56.096;12.664;2022-07-22T04:45:05;102607.97;;;17.62;100.00
13732;BME280;6937;56.096;12.664;2022-07-22T04:47:31;102591.19;;;17.57;100.00
13732;BME280;6937;56.096;12.664;2022-07-22T04:49:56;102575.25;;;17.52;100.00
13732;BME280;6937;56.096;12.664;2022-07-22T04:52:21;102562.19;;;17.46;100.00
13732;BME280;6937;56.096;12.664;2022-07-22T04:54:47;102560.38;;;17.47;100.00
13732;BME280;6937;56.096;12.664;2022-07-22T04:57:12;102557.84;;;17.44;100.00
13732;BME280;6937;56.096;12.664;2022-07-22T04:59:38;102562.53;;;17.42;100.00
13732;BME280;6937;56.096;12.664;2022-07-22T05:02:03;102568.56;;;17.45;100.00
13732;BME280;6937;56.096;12.664;2022-07-22T05:04:29;102564.50;;;17.39;100.00
13732;BME280;6937;56.096;12.664;2022-07-22T05:06:54;102580.13;;;17.47;100.00
13732;BME280;6937;56.096;12.664;2022-07-22T05:09:20;102593.66;;;17.47;100.00
13732;BME280;6937;56.096;12.664;2022-07-22T05:11:45;102586.53;;;17.46;100.00
13732;BME280;6937;56.096;12.664;2022-07-22T05:14:11;102599.81;;;17.49;100.00
13732;BME280;6937;56.096;12.664;2022-07-22T05:16:36;102589.88;;;17.50;100.00
13732;BME280;6937;56.096;12.664;2022-07-22T05:19:05;102573.13;;;17.45;100.00
13732;BME280;6937;56.096;12.664;2022-07-22T05:21:30;102571.28;;;17.45;100.00
13732;BME280;6937;56.096;12.664;2022-07-22T05:23:56;102587.28;;;17.48;100.00
13732;BME280;6937;56.096;12.664;2022-07-22T05:26:21;102590.94;;;17.47;100.00
13732;BME280;6937;56.096;12.664;2022-07-22T05:28:47;102595.63;;;17.45;100.00
13732;BME280;6937;56.096;12.664;2022-07-22T05:31:12;102603.72;;;17.45;100.00
13732;BME280;6937;56.096;12.664;2022-07-22T05:33:38;102597.66;;;17.42;100.00
13732;BME280;6937;56.096;12.664;2022-07-22T05:36:03;102619.06;;;17.45;100.00
13732;BME280;6937;56.096;12.664;2022-07-22T05:38:32;102616.38;;;17.45;100.00
13732;BME280;6937;56.096;12.664;2022-07-22T05:40:58;102621.13;;;17.41;100.00
13732;BME280;6937;56.096;12.664;2022-07-22T05:43:23;102614.63;;;17.44;100.00
13732;BME280;6937;56.096;12.664;2022-07-22T05:45:49;102622.66;;;17.45;100.00
13732;BME280;6937;56.096;12.664;2022-07-22T05:48:14;102638.53;;;17.50;100.00
13732;BME280;6937;56.096;12.664;2022-07-22T05:50:40;102631.41;;;17.49;100.00
13732;BME280;6937;56.096;12.664;2022-07-22T05:53:05;102646.34;;;17.54;100.00
13732;BME280;6937;56.096;12.664;2022-07-22T05:55:31;102646.13;;;17.57;100.00
13732;BME280;6937;56.096;12.664;2022-07-22T05:57:56;102637.22;;;17.55;100.00
13732;BME280;6937;56.096;12.664;2022-07-22T06:00:21;102633.66;;;17.55;100.00
13732;BME280;6937;56.096;12.664;2022-07-22T06:02:47;102659.34;;;17.62;100.00
13732;BME280;6937;56.096;12.664;2022-07-22T06:05:12;102635.09;;;17.60;100.00
13732;BME280;6937;56.096;12.664;2022-07-22T06:07:38;102619.41;;;17.53;100.00
13732;BME280;6937;56.096;12.664;2022-07-22T06:10:03;102626.03;;;17.61;100.00
13732;BME280;6937;56.096;12.664;2022-07-22T06:12:29;102589.34;;;17.45;100.00
13732;BME280;6937;56.096;12.664;2022-07-22T06:14:55;102578.19;;;17.49;100.00
13732;BME280;6937;56.096;12.664;2022-07-22T06:17:20;102579.06;;;17.50;100.00
13732;BME280;6937;56.096;12.664;2022-07-22T06:19:45;102549.41;;;17.48;100.00
13732;BME280;6937;56.096;12.664;2022-07-22T06:22:11;102537.53;;;17.51;100.00
13732;BME280;6937;56.096;12.664;2022-07-22T06:24:36;102520.44;;;17.50;100.00
13732;BME280;6937;56.096;12.664;2022-07-22T06:27:02;102507.91;;;17.49;100.00
13732;BME280;6937;56.096;12.664;2022-07-22T06:29:27;102489.84;;;17.50;100.00
13732;BME280;6937;56.096;12.664;2022-07-22T06:31:53;102467.44;;;17.48;100.00
13732;BME280;6937;56.096;12.664;2022-07-22T06:34:18;102453.81;;;17.49;100.00
13732;BME280;6937;56.096;12.664;2022-07-22T06:36:44;102417.41;;;17.42;100.00
13732;BME280;6937;56.096;12.664;2022-07-22T06:39:09;102414.59;;;17.44;100.00
13732;BME280;6937;56.096;12.664;2022-07-22T06:41:34;102395.03;;;17.40;100.00
13732;BME280;6937;56.096;12.664;2022-07-22T06:44:00;102380.00;;;17.36;100.00
13732;BME280;6937;56.096;12.664;2022-07-22T06:46:25;102389.03;;;17.48;100.00
13732;BME280;6937;56.096;12.664;2022-07-22T06:48:50;102393.25;;;17.52;100.00
13732;BME280;6937;56.096;12.664;2022-07-22T06:51:16;102389.56;;;17.53;100.00
13732;BME280;6937;56.096;12.664;2022-07-22T06:53:41;102370.75;;;17.51;100.00
13732;BME280;6937;56.096;12.664;2022-07-22T06:56:07;102343.84;;;17.50;100.00
13732;BME280;6937;56.096;12.664;2022-07-22T06:58:32;102329.47;;;17.49;100.00
13732;BME280;6937;56.096;12.664;2022-07-22T07:00:58;102337.22;;;17.54;100.00
13732;BME280;6937;56.096;12.664;2022-07-22T07:03:23;102324.38;;;17.57;100.00
13732;BME280;6937;56.096;12.664;2022-07-22T07:05:51;102331.03;;;17.64;100.00
13732;BME280;6937;56.096;12.664;2022-07-22T07:08:16;102313.81;;;17.65;100.00
13732;BME280;6937;56.096;12.664;2022-07-22T07:10:42;102296.34;;;17.58;100.00
13732;BME280;6937;56.096;12.664;2022-07-22T07:13:07;102308.63;;;17.62;100.00
13732;BME280;6937;56.096;12.664;2022-07-22T07:15:33;102280.13;;;17.58;100.00
13732;BME280;6937;56.096;12.664;2022-07-22T07:17:58;102269.94;;;17.62;100.00
13732;BME280;6937;56.096;12.664;2022-07-22T07:20:24;102232.44;;;17.57;100.00
13732;BME280;6937;56.096;12.664;2022-07-22T07:22:50;102220.81;;;17.55;100.00
13732;BME280;6937;56.096;12.664;2022-07-22T07:25:15;102231.22;;;17.61;100.00
13732;BME280;6937;56.096;12.664;2022-07-22T07:27:42;102227.66;;;17.61;100.00
13732;BME280;6937;56.096;12.664;2022-07-22T07:30:08;102246.44;;;17.73;100.00
13732;BME280;6937;56.096;12.664;2022-07-22T07:32:36;102209.84;;;17.69;100.00
13732;BME280;6937;56.096;12.664;2022-07-22T07:35:03;102185.94;;;17.52;100.00
13732;BME280;6937;56.096;12.664;2022-07-22T07:37:29;102218.50;;;17.51;100.00
13732;BME280;6937;56.096;12.664;2022-07-22T07:39:55;102246.25;;;17.42;100.00
13732;BME280;6937;56.096;12.664;2022-07-22T07:42:20;102270.06;;;17.36;100.00
13732;BME280;6937;56.096;12.664;2022-07-22T07:44:45;102308.13;;;17.33;100.00
13732;BME280;6937;56.096;12.664;2022-07-22T07:47:11;102321.03;;;17.30;100.00
13732;BME280;6937;56.096;12.664;2022-07-22T07:49:38;102321.50;;;17.24;100.00
13732;BME280;6937;56.096;12.664;2022-07-22T07:52:03;102340.41;;;17.24;100.00
13732;BME280;6937;56.096;12.664;2022-07-22T07:54:29;102354.13;;;17.21;100.00
13732;BME280;6937;56.096;12.664;2022-07-22T07:56:54;102344.78;;;17.14;100.00
13732;BME280;6937;56.096;12.664;2022-07-22T07:59:19;102358.50;;;17.11;100.00
13732;BME280;6937;56.096;12.664;2022-07-22T08:01:45;102361.53;;;17.06;100.00
13732;BME280;6937;56.096;12.664;2022-07-22T08:04:10;102357.72;;;16.98;100.00
13732;BME280;6937;56.096;12.664;2022-07-22T08:06:36;102356.72;;;16.99;100.00
13732;BME280;6937;56.096;12.664;2022-07-22T08:09:01;102348.66;;;16.86;100.00
13732;BME280;6937;56.096;12.664;2022-07-22T08:11:27;102385.78;;;16.95;100.00
13732;BME280;6937;56.096;12.664;2022-07-22T08:13:52;102406.53;;;16.95;100.00
13732;BME280;6937;56.096;12.664;2022-07-22T08:16:18;102429.78;;;16.97;100.00
13732;BME280;6937;56.096;12.664;2022-07-22T08:18:43;102448.06;;;16.94;100.00
13732;BME280;6937;56.096;12.664;2022-07-22T08:21:08;102466.97;;;16.94;100.00
13732;BME280;6937;56.096;12.664;2022-07-22T08:23:34;102457.44;;;16.88;100.00
13732;BME280;6937;56.096;12.664;2022-07-22T08:25:59;102460.38;;;16.85;100.00
13732;BME280;6937;56.096;12.664;2022-07-22T08:28:25;102476.56;;;16.85;100.00
13732;BME280;6937;56.096;12.664;2022-07-22T08:30:51;102468.69;;;16.82;100.00
13732;BME280;6937;56.096;12.664;2022-07-22T08:33:16;102480.88;;;16.87;100.00
13732;BME280;6937;56.096;12.664;2022-07-22T08:35:42;102476.69;;;16.83;100.00
13732;BME280;6937;56.096;12.664;2022-07-22T08:38:07;102480.59;;;16.79;100.00
13732;BME280;6937;56.096;12.664;2022-07-22T08:40:33;102487.06;;;16.77;100.00
13732;BME280;6937;56.096;12.664;2022-07-22T08:42:58;102498.72;;;16.77;100.00
13732;BME280;6937;56.096;12.664;2022-07-22T08:45:28;102521.84;;;16.81;100.00
13732;BME280;6937;56.096;12.664;2022-07-22T08:47:54;102528.75;;;16.73;100.00
13732;BME280;6937;56.096;12.664;2022-07-22T08:50:19;102552.53;;;16.80;100.00
13732;BME280;6937;56.096;12.664;2022-07-22T08:52:45;102578.56;;;16.81;100.00
13732;BME280;6937;56.096;12.664;2022-07-22T08:55:10;102589.06;;;16.86;100.00
13732;BME280;6937;56.096;12.664;2022-07-22T08:57:36;102612.19;;;16.90;100.00
13732;BME280;6937;56.096;12.664;2022-07-22T09:00:10;102635.09;;;16.97;100.00
13732;BME280;6937;56.096;12.664;2022-07-22T09:02:39;102631.31;;;17.00;100.00
13732;BME280;6937;56.096;12.664;2022-07-22T09:05:08;102644.94;;;16.98;100.00
13732;BME280;6937;56.096;12.664;2022-07-22T09:07:35;102676.03;;;17.04;100.00
13732;BME280;6937;56.096;12.664;2022-07-22T09:10:05;102718.84;;;17.10;100.00
13732;BME280;6937;56.096;12.664;2022-07-22T09:12:30;102774.31;;;17.15;100.00
13732;BME280;6937;56.096;12.664;2022-07-22T09:14:59;102811.84;;;17.20;100.00
13732;BME280;6937;56.096;12.664;2022-07-22T09:17:43;102849.47;;;17.23;100.00
13732;BME280;6937;56.096;12.664;2022-07-22T09:20:16;102877.69;;;17.19;100.00
13732;BME280;6937;56.096;12.664;2022-07-22T09:22:44;102902.97;;;17.18;100.00
13732;BME280;6937;56.096;12.664;2022-07-22T09:25:27;102952.19;;;17.23;100.00
13732;BME280;6937;56.096;12.664;2022-07-22T09:30:34;103034.41;;;17.33;100.00
13732;BME280;6937;56.096;12.664;2022-07-22T09:33:00;103074.66;;;17.37;100.00
13732;BME280;6937;56.096;12.664;2022-07-22T09:35:25;103088.09;;;17.39;100.00
13732;BME280;6937;56.096;12.664;2022-07-22T09:38:02;103098.72;;;17.42;100.00
13732;BME280;6937;56.096;12.664;2022-07-22T09:40:35;103121.31;;;17.41;100.00
13732;BME280;6937;56.096;12.664;2022-07-22T09:43:04;103121.59;;;17.51;100.00
13732;BME280;6937;56.096;12.664;2022-07-22T09:45:31;103114.44;;;17.50;100.00
13732;BME280;6937;56.096;12.664;2022-07-22T09:47:59;103124.19;;;17.52;100.00
13732;BME280;6937;56.096;12.664;2022-07-22T09:50:30;103120.59;;;17.52;100.00
13732;BME280;6937;56.096;12.664;2022-07-22T09:52:57;103103.84;;;17.47;100.00
13732;BME280;6937;56.096;12.664;2022-07-22T09:55:24;103107.28;;;17.49;100.00
13732;BME280;6937;56.096;12.664;2022-07-22T09:57:51;103085.00;;;17.45;100.00
13732;BME280;6937;56.096;12.664;2022-07-22T10:00:20;103084.69;;;17.50;100.00
13732;BME280;6937;56.096;12.664;2022-07-22T10:05:12;102930.44;;;17.51;100.00
13732;BME280;6937;56.096;12.664;2022-07-22T10:07:40;102889.44;;;17.45;100.00
13732;BME280;6937;56.096;12.664;2022-07-22T10:10:07;102901.97;;;17.60;100.00
13732;BME280;6937;56.096;12.664;2022-07-22T10:12:33;102901.66;;;17.64;100.00
13732;BME280;6937;56.096;12.664;2022-07-22T10:15:00;102891.94;;;17.74;100.00
13732;BME280;6937;56.096;12.664;2022-07-22T10:17:25;102903.22;;;17.94;100.00
13732;BME280;6937;56.096;12.664;2022-07-22T10:19:51;102917.31;;;18.24;100.00
13732;BME280;6937;56.096;12.664;2022-07-22T10:25:05;102922.91;;;18.84;100.00
13732;BME280;6937;56.096;12.664;2022-07-22T10:30:19;102819.31;;;19.39;100.00
13732;BME280;6937;56.096;12.664;2022-07-22T10:33:04;102733.09;;;19.55;100.00
13732;BME280;6937;56.096;12.664;2022-07-22T10:35:34;102654.19;;;19.69;100.00
13732;BME280;6937;56.096;12.664;2022-07-22T10:38:01;102551.69;;;19.73;100.00
13732;BME280;6937;56.096;12.664;2022-07-22T10:40:31;102457.31;;;19.76;100.00
13732;BME280;6937;56.096;12.664;2022-07-22T10:45:26;102157.47;;;19.52;100.00
13732;BME280;6937;56.096;12.664;2022-07-22T10:47:52;102049.97;;;19.51;100.00
13732;BME280;6937;56.096;12.664;2022-07-22T10:53:07;102095.44;;;19.68;100.00
13732;BME280;6937;56.096;12.664;2022-07-22T10:55:33;102082.34;;;19.92;100.00
13732;BME280;6937;56.096;12.664;2022-07-22T10:57:59;102049.09;;;20.00;100.00
13732;BME280;6937;56.096;12.664;2022-07-22T11:00:25;102031.09;;;19.99;100.00
13732;BME280;6937;56.096;12.664;2022-07-22T11:02:50;102004.53;;;19.83;100.00
13732;BME280;6937;56.096;12.664;2022-07-22T11:05:28;101977.34;;;19.73;100.00
13732;BME280;6937;56.096;12.664;2022-07-22T11:07:57;101969.78;;;19.67;100.00
13732;BME280;6937;56.096;12.664;2022-07-22T11:10:22;101954.50;;;19.66;100.00
13732;BME280;6937;56.096;12.664;2022-07-22T11:12:49;101910.38;;;19.55;100.00
13732;BME280;6937;56.096;12.664;2022-07-22T11:15:15;101899.25;;;19.58;100.00
13732;BME280;6937;56.096;12.664;2022-07-22T11:17:41;101905.97;;;19.73;100.00
13732;BME280;6937;56.096;12.664;2022-07-22T11:20:11;101900.56;;;19.83;100.00
13732;BME280;6937;56.096;12.664;2022-07-22T11:22:38;101887.00;;;19.83;100.00
13732;BME280;6937;56.096;12.664;2022-07-22T11:25:07;101900.66;;;20.10;100.00
13732;BME280;6937;56.096;12.664;2022-07-22T11:27:33;101871.53;;;19.93;100.00
13732;BME280;6937;56.096;12.664;2022-07-22T11:29:58;101847.31;;;19.72;100.00
13732;BME280;6937;56.096;12.664;2022-07-22T11:32:26;101856.28;;;19.82;100.00
13732;BME280;6937;56.096;12.664;2022-07-22T11:34:56;101855.69;;;19.88;100.00
13732;BME280;6937;56.096;12.664;2022-07-22T11:37:23;101838.16;;;19.83;100.00
13732;BME280;6937;56.096;12.664;2022-07-22T11:39:49;101838.69;;;19.76;100.00
13732;BME280;6937;56.096;12.664;2022-07-22T11:42:15;101826.56;;;19.61;100.00
13732;BME280;6937;56.096;12.664;2022-07-22T11:44:41;101827.59;;;19.60;100.00
13732;BME280;6937;56.096;12.664;2022-07-22T11:47:08;101841.00;;;19.71;100.00
13732;BME280;6937;56.096;12.664;2022-07-22T11:49:36;101844.00;;;19.68;100.00
13732;BME280;6937;56.096;12.664;2022-07-22T11:52:10;101821.75;;;19.55;100.00
13732;BME280;6937;56.096;12.664;2022-07-22T11:54:40;101825.84;;;19.40;100.00
13732;BME280;6937;56.096;12.664;2022-07-22T11:57:05;101837.53;;;19.31;100.00
13732;BME280;6937;56.096;12.664;2022-07-22T11:59:33;101836.13;;;19.27;100.00
13732;BME280;6937;56.096;12.664;2022-07-22T12:01:58;101835.22;;;19.17;100.00
13732;BME280;6937;56.096;12.664;2022-07-22T12:04:25;101818.97;;;19.07;100.00
13732;BME280;6937;56.096;12.664;2022-07-22T12:06:52;101800.25;;;18.85;100.00
13732;BME280;6937;56.096;12.664;2022-07-22T12:11:47;101821.94;;;18.95;100.00
13732;BME280;6937;56.096;12.664;2022-07-22T12:14:21;101848.50;;;19.01;100.00
13732;BME280;6937;56.096;12.664;2022-07-22T12:16:58;101821.06;;;18.94;100.00
13732;BME280;6937;56.096;12.664;2022-07-22T12:19:24;101830.47;;;18.90;100.00
13732;BME280;6937;56.096;12.664;2022-07-22T12:21:56;101821.34;;;18.91;100.00
13732;BME280;6937;56.096;12.664;2022-07-22T12:24:42;101824.91;;;18.92;100.00
13732;BME280;6937;56.096;12.664;2022-07-22T12:27:10;101808.50;;;18.83;100.00
13732;BME280;6937;56.096;12.664;2022-07-22T12:34:42;101842.09;;;19.11;100.00
13732;BME280;6937;56.096;12.664;2022-07-22T12:37:18;101838.69;;;19.19;100.00
13732;BME280;6937;56.096;12.664;2022-07-22T12:42:34;101830.97;;;19.34;100.00
13732;BME280;6937;56.096;12.664;2022-07-22T12:45:14;101828.97;;;19.36;100.00
13732;BME280;6937;56.096;12.664;2022-07-22T12:47:54;101846.03;;;19.57;100.00
13732;BME280;6937;56.096;12.664;2022-07-22T12:50:39;101841.88;;;19.53;100.00
13732;BME280;6937;56.096;12.664;2022-07-22T12:53:10;101823.88;;;19.52;100.00
13732;BME280;6937;56.096;12.664;2022-07-22T12:58:04;101811.44;;;19.30;100.00
13732;BME280;6937;56.096;12.664;2022-07-22T13:00:33;101804.44;;;19.18;100.00
13732;BME280;6937;56.096;12.664;2022-07-22T13:02:59;101815.84;;;19.12;100.00
13732;BME280;6937;56.096;12.664;2022-07-22T13:05:25;101822.97;;;19.22;100.00